^^
Grace C. Lehan Memorial Weather Station Historical Data
Daily Summary for August 20, 2021 Units:  Both    English   Metric
Daily Weekly Monthly Yearly
  High: Low: Average:
Temperature: 81.9 °F /  27.7 °C 52.7 °F /  11.5 °C 67.5 °F /  19.7 °C
Dew Point: 54.4 °F /  12.4 °C 46.6 °F /  8.1 °C 50 °F /  10 °C
Humidity: 87.7% 32.2% 57%
Wind Speed: 1.9mph /  3.1km/h - 0.2mph /  0.3km/h
Wind Gust: 9mph /  14.5km/h - -
Wind- - SSW
Pressure: 30.48 in /  1032.1 hPa 30.33 in /  1027 hPa -
Precipitation: 0.00 in /  0 mm    
 
 
Tabular Data for August 20, 2021
Time Temperature Dew Point Pressure Wind Wind Speed Wind Gust Humidity Rainfall Rate (Hourly) solar
00:04 60.8 °F /  16 °C 48.1 °F /  8.9 °C 30.33in /  1027hPa Calm     63% 0.00in /  0mm 0 W/m2
00:09 60.8 °F /  16 °C 48.2 °F /  9 °C 30.33in /  1027hPa Calm     63.2% 0.00in /  0mm 0 W/m2
00:14 60.7 °F /  15.9 °C 48.1 °F /  8.9 °C 30.33in /  1027hPa Calm     63.1% 0.00in /  0mm 0 W/m2
00:19 60.7 °F /  15.9 °C 48.4 °F /  9.1 °C 30.34in /  1027.3hPa Calm     63.8% 0.00in /  0mm 0 W/m2
00:24 60.6 °F /  15.9 °C 48.5 °F /  9.2 °C 30.34in /  1027.3hPa Calm     64.4% 0.00in /  0mm 0 W/m2
00:29 60.4 °F /  15.8 °C 48.2 °F /  9 °C 30.34in /  1027.3hPa Calm     64% 0.00in /  0mm 0 W/m2
00:34 60.2 °F /  15.7 °C 48.2 °F /  9 °C 30.34in /  1027.3hPa Calm     64.4% 0.00in /  0mm 0 W/m2
00:39 60.1 °F /  15.6 °C 48.5 °F /  9.2 °C 30.34in /  1027.3hPa Calm     65.4% 0.00in /  0mm 0 W/m2
00:44 59.9 °F /  15.5 °C 48.6 °F /  9.2 °C 30.34in /  1027.3hPa Calm     66% 0.00in /  0mm 0 W/m2
00:49 59.8 °F /  15.4 °C 48.4 °F /  9.1 °C 30.35in /  1027.7hPa Calm     66% 0.00in /  0mm 0 W/m2
00:54 59.7 °F /  15.4 °C 48.7 °F /  9.3 °C 30.35in /  1027.7hPa Calm     67% 0.00in /  0mm 0 W/m2
00:59 59.5 °F /  15.3 °C 48.8 °F /  9.3 °C 30.35in /  1027.7hPa Calm     67.6% 0.00in /  0mm 0 W/m2
01:04 59.4 °F /  15.2 °C 48.8 °F /  9.3 °C 30.35in /  1027.7hPa Calm     68% 0.00in /  0mm 0 W/m2
01:09 59.2 °F /  15.1 °C 48.7 °F /  9.3 °C 30.35in /  1027.7hPa Calm     68.1% 0.00in /  0mm 0 W/m2
01:14 59.1 °F /  15.1 °C 48.9 °F /  9.4 °C 30.36in /  1028hPa Calm     69% 0.00in /  0mm 0 W/m2
01:19 59 °F /  15 °C 49 °F /  9.4 °C 30.36in /  1028hPa Calm     69.5% 0.00in /  0mm 0 W/m2
01:24 58.9 °F /  14.9 °C 49.1 °F /  9.5 °C 30.36in /  1028hPa Calm     70% 0.00in /  0mm 0 W/m2
01:29 58.7 °F /  14.8 °C 49 °F /  9.4 °C 30.36in /  1028hPa Calm     70% 0.00in /  0mm 0 W/m2
01:34 58.6 °F /  14.8 °C 49 °F /  9.4 °C 30.36in /  1028hPa Calm     70.3% 0.00in /  0mm 0 W/m2
01:39 58.4 °F /  14.7 °C 49.1 °F /  9.5 °C 30.35in /  1027.7hPa Calm     71% 0.00in /  0mm 0 W/m2
01:44 58.3 °F /  14.6 °C 49 °F /  9.4 °C 30.36in /  1028hPa Calm     71% 0.00in /  0mm 0 W/m2
01:49 58.2 °F /  14.6 °C 48.9 °F /  9.4 °C 30.36in /  1028hPa Calm     71% 0.00in /  0mm 0 W/m2
01:54 58.2 °F /  14.6 °C 48.9 °F /  9.4 °C 30.36in /  1028hPa Calm     71.3% 0.00in /  0mm 0 W/m2
01:59 58 °F /  14.4 °C 49.1 °F /  9.5 °C 30.36in /  1028hPa Calm     72% 0.00in /  0mm 0 W/m2
02:04 57.9 °F /  14.4 °C 49 °F /  9.4 °C 30.36in /  1028hPa Calm     72% 0.00in /  0mm 0 W/m2
02:09 57.8 °F /  14.3 °C 48.8 °F /  9.3 °C 30.36in /  1028hPa Calm     72% 0.00in /  0mm 0 W/m2
02:14 57.7 °F /  14.3 °C 49 °F /  9.4 °C 30.36in /  1028hPa Calm     72.8% 0.00in /  0mm 0 W/m2
02:19 57.6 °F /  14.2 °C 48.7 °F /  9.3 °C 30.36in /  1028hPa Calm     72.3% 0.00in /  0mm 0 W/m2
02:24 57.5 °F /  14.2 °C 48.8 °F /  9.3 °C 30.36in /  1028hPa Calm     72.9% 0.00in /  0mm 0 W/m2
02:29 57.3 °F /  14.1 °C 48.7 °F /  9.3 °C 30.36in /  1028hPa Calm     73% 0.00in /  0mm 0 W/m2
02:34 57.2 °F /  14 °C 48.6 °F /  9.2 °C 30.37in /  1028.3hPa Calm     73% 0.00in /  0mm 0 W/m2
02:39 57.1 °F /  13.9 °C 48.7 °F /  9.3 °C 30.37in /  1028.3hPa Calm     73.6% 0.00in /  0mm 0 W/m2
02:44 56.9 °F /  13.8 °C 48.5 °F /  9.2 °C 30.37in /  1028.3hPa Calm     73.3% 0.00in /  0mm 0 W/m2
02:49 56.8 °F /  13.8 °C 48.6 °F /  9.2 °C 30.37in /  1028.3hPa Calm     74% 0.00in /  0mm 0 W/m2
02:54 56.7 °F /  13.7 °C 48.6 °F /  9.2 °C 30.36in /  1028hPa Calm     74.5% 0.00in /  0mm 0 W/m2
02:59 56.5 °F /  13.6 °C 48.7 °F /  9.3 °C 30.37in /  1028.3hPa Calm     75% 0.00in /  0mm 0 W/m2
03:04 56.3 °F /  13.5 °C 48.5 °F /  9.2 °C 30.37in /  1028.3hPa Calm     75% 0.00in /  0mm 0 W/m2
03:09 56.2 °F /  13.4 °C 48.4 °F /  9.1 °C 30.37in /  1028.3hPa Calm     75% 0.00in /  0mm 0 W/m2
03:14 56 °F /  13.3 °C 48.2 °F /  9 °C 30.37in /  1028.3hPa Calm     75% 0.00in /  0mm 0 W/m2
03:19 55.9 °F /  13.3 °C 48.1 °F /  8.9 °C 30.37in /  1028.3hPa Calm     75% 0.00in /  0mm 0 W/m2
03:24 55.8 °F /  13.2 °C 48.1 °F /  8.9 °C 30.36in /  1028hPa Calm     75.2% 0.00in /  0mm 0 W/m2
03:29 55.7 °F /  13.2 °C 48.3 °F /  9.1 °C 30.36in /  1028hPa Calm     76.2% 0.00in /  0mm 0 W/m2
03:34 55.5 °F /  13.1 °C 48.5 °F /  9.2 °C 30.36in /  1028hPa Calm     77.2% 0.00in /  0mm 0 W/m2
03:39 55.3 °F /  12.9 °C 48.5 °F /  9.2 °C 30.36in /  1028hPa Calm     78% 0.00in /  0mm 0 W/m2
03:44 55 °F /  12.8 °C 48.3 °F /  9.1 °C 30.37in /  1028.3hPa Calm     78% 0.00in /  0mm 0 W/m2
03:49 54.8 °F /  12.7 °C 48.4 °F /  9.1 °C 30.37in /  1028.3hPa Calm     79% 0.00in /  0mm 0 W/m2
03:54 54.6 °F /  12.6 °C 48.3 °F /  9.1 °C 30.38in /  1028.7hPa Calm     79% 0.00in /  0mm 0 W/m2
03:59 54.5 °F /  12.5 °C 48.2 °F /  9 °C 30.38in /  1028.7hPa Calm     79.4% 0.00in /  0mm 0 W/m2
04:04 54.3 °F /  12.4 °C 48.3 °F /  9.1 °C 30.38in /  1028.7hPa Calm     80% 0.00in /  0mm 0 W/m2
04:09 54.2 °F /  12.3 °C 48.4 °F /  9.1 °C 30.38in /  1028.7hPa Calm     80.5% 0.00in /  0mm 0 W/m2
04:14 54.1 °F /  12.3 °C 48.4 °F /  9.1 °C 30.38in /  1028.7hPa Calm     81% 0.00in /  0mm 0 W/m2
04:19 54 °F /  12.2 °C 48.3 °F /  9.1 °C 30.38in /  1028.7hPa Calm     81% 0.00in /  0mm 0 W/m2
04:24 53.9 °F /  12.2 °C 48.2 °F /  9 °C 30.39in /  1029hPa Calm     81% 0.00in /  0mm 0 W/m2
04:29 53.8 °F /  12.1 °C 48.4 °F /  9.1 °C 30.39in /  1029hPa Calm     81.8% 0.00in /  0mm 0 W/m2
04:34 53.7 °F /  12.1 °C 48.4 °F /  9.1 °C 30.39in /  1029hPa Calm     82% 0.00in /  0mm 0 W/m2
04:39 53.6 °F /  12 °C 48.3 °F /  9.1 °C 30.39in /  1029hPa Calm     82% 0.00in /  0mm 0 W/m2
04:44 53.5 °F /  11.9 °C 48.2 °F /  9 °C 30.39in /  1029hPa Calm     82.2% 0.00in /  0mm 0 W/m2
04:49 53.3 °F /  11.8 °C 48.3 °F /  9.1 °C 30.40in /  1029.3hPa Calm     82.8% 0.00in /  0mm 0 W/m2
04:54 53.2 °F /  11.8 °C 48.2 °F /  9 °C 30.40in /  1029.3hPa Calm     83% 0.00in /  0mm 0 W/m2
04:59 53.1 °F /  11.7 °C 48.1 °F /  8.9 °C 30.40in /  1029.3hPa Calm     83.3% 0.00in /  0mm 0 W/m2
05:04 53 °F /  11.7 °C 48.3 °F /  9.1 °C 30.40in /  1029.3hPa Calm     84% 0.00in /  0mm 0 W/m2
05:09 52.9 °F /  11.6 °C 48.2 °F /  9 °C 30.40in /  1029.3hPa Calm     84% 0.00in /  0mm 0 W/m2
05:14 52.8 °F /  11.6 °C 48.3 °F /  9.1 °C 30.41in /  1029.7hPa Calm     84.7% 0.00in /  0mm 0 W/m2
05:19 52.8 °F /  11.6 °C 48.4 °F /  9.1 °C 30.41in /  1029.7hPa Calm     85% 0.00in /  0mm 0 W/m2
05:24 52.7 °F /  11.5 °C 48.3 °F /  9.1 °C 30.41in /  1029.7hPa Calm     85% 0.00in /  0mm 5 W/m2
05:29 52.7 °F /  11.5 °C 48.3 °F /  9.1 °C 30.41in /  1029.7hPa Calm     85% 0.00in /  0mm 7 W/m2
05:34 52.7 °F /  11.5 °C 48.3 °F /  9.1 °C 30.41in /  1029.7hPa Calm     85% 0.00in /  0mm 9 W/m2
05:39 52.7 °F /  11.5 °C 48.3 °F /  9.1 °C 30.41in /  1029.7hPa Calm     85.1% 0.00in /  0mm 12 W/m2
05:44 52.7 °F /  11.5 °C 48.6 °F /  9.2 °C 30.41in /  1029.7hPa Calm     86% 0.00in /  0mm 16 W/m2
05:49 52.7 °F /  11.5 °C 48.6 °F /  9.2 °C 30.41in /  1029.7hPa Calm     86% 0.00in /  0mm 19 W/m2
05:54 52.7 °F /  11.5 °C 48.6 °F /  9.2 °C 30.41in /  1029.7hPa Calm     86% 0.00in /  0mm 26 W/m2
05:59 52.7 °F /  11.5 °C 48.6 °F /  9.2 °C 30.41in /  1029.7hPa Calm     86% 0.00in /  0mm 32 W/m2
06:04 52.7 °F /  11.5 °C 48.6 °F /  9.2 °C 30.41in /  1029.7hPa Calm     86% 0.00in /  0mm 33 W/m2
06:09 52.7 °F /  11.5 °C 48.6 °F /  9.2 °C 30.42in /  1030hPa Calm     86% 0.00in /  0mm 33 W/m2
06:14 52.8 °F /  11.6 °C 48.8 °F /  9.3 °C 30.42in /  1030hPa Calm     86.4% 0.00in /  0mm 35 W/m2
06:19 52.9 °F /  11.6 °C 49.1 °F /  9.5 °C 30.42in /  1030hPa Calm     87% 0.00in /  0mm 39 W/m2
06:24 53 °F /  11.7 °C 49.2 °F /  9.6 °C 30.42in /  1030hPa Calm     87% 0.00in /  0mm 49 W/m2
06:29 53.1 °F /  11.7 °C 49.4 °F /  9.7 °C 30.42in /  1030hPa Calm     87% 0.00in /  0mm 56 W/m2
06:34 53.4 °F /  11.9 °C 49.7 °F /  9.8 °C 30.42in /  1030hPa Calm     87.1% 0.00in /  0mm 69 W/m2
06:39 53.8 °F /  12.1 °C 50.3 °F /  10.2 °C 30.43in /  1030.4hPa Calm     87.7% 0.00in /  0mm 76 W/m2
06:44 54.3 °F /  12.4 °C 50.6 °F /  10.3 °C 30.43in /  1030.4hPa Calm     87% 0.00in /  0mm 77 W/m2
06:49 54.9 °F /  12.7 °C 51 °F /  10.6 °C 30.43in /  1030.4hPa Calm     86.8% 0.00in /  0mm 77 W/m2
06:54 55.5 °F /  13.1 °C 51.2 °F /  10.7 °C 30.43in /  1030.4hPa Calm     85.6% 0.00in /  0mm 91 W/m2
06:59 56 °F /  13.3 °C 51.4 °F /  10.8 °C 30.44in /  1030.7hPa Calm     84.7% 0.00in /  0mm 91 W/m2
07:04 56.4 °F /  13.6 °C 51.5 °F /  10.8 °C 30.44in /  1030.7hPa Calm     83.4% 0.00in /  0mm 81 W/m2
07:09 56.8 °F /  13.8 °C 51.5 °F /  10.8 °C 30.44in /  1030.7hPa Calm     82.3% 0.00in /  0mm 144 W/m2
07:14 57.2 °F /  14 °C 51.8 °F /  11 °C 30.44in /  1030.7hPa Calm     82% 0.00in /  0mm 221 W/m2
07:19 57.8 °F /  14.3 °C 52.3 °F /  11.3 °C 30.44in /  1030.7hPa Calm     81.9% 0.00in /  0mm 255 W/m2
07:24 58.6 °F /  14.8 °C 52.7 °F /  11.5 °C 30.44in /  1030.7hPa Calm     80.8% 0.00in /  0mm 264 W/m2
07:29 59.4 °F /  15.2 °C 52.7 °F /  11.5 °C 30.44in /  1030.7hPa Calm     78.6% 0.00in /  0mm 283 W/m2
07:34 60.2 °F /  15.7 °C 52.9 °F /  11.6 °C 30.45in /  1031hPa Calm     76.9% 0.00in /  0mm 316 W/m2
07:39 61.1 °F /  16.2 °C 52.9 °F /  11.6 °C 30.45in /  1031hPa Calm     74.6% 0.00in /  0mm 332 W/m2
07:44 62 °F /  16.7 °C 52.9 °F /  11.6 °C 30.45in /  1031hPa Calm     72% 0.00in /  0mm 348 W/m2
07:49 62.6 °F /  17 °C 53.3 °F /  11.8 °C 30.45in /  1031hPa Calm     71.5% 0.00in /  0mm 366 W/m2
07:54 63.3 °F /  17.4 °C 53.6 °F /  12 °C 30.45in /  1031hPa Calm     70.7% 0.00in /  0mm 385 W/m2
07:59 63.8 °F /  17.7 °C 53.8 °F /  12.1 °C 30.45in /  1031hPa Calm     69.8% 0.00in /  0mm 399 W/m2
08:09 64.9 °F /  18.3 °C 54.1 °F /  12.3 °C 30.45in /  1031hPa Calm     68% 0.00in /  0mm 438 W/m2
08:14 65.5 °F /  18.6 °C 54 °F /  12.2 °C 30.45in /  1031hPa Calm     66.1% 0.00in /  0mm 450 W/m2
08:19 65.9 °F /  18.8 °C 53.4 °F /  11.9 °C 30.45in /  1031hPa Calm     63.9% 0.00in /  0mm 464 W/m2
08:24 66.3 °F /  19.1 °C 54.2 °F /  12.3 °C 30.45in /  1031hPa Calm     64.9% 0.00in /  0mm 476 W/m2
08:29 67.1 °F /  19.5 °C 53.5 °F /  11.9 °C 30.45in /  1031hPa Calm     61.7% 0.00in /  0mm 496 W/m2
08:34 67.6 °F /  19.8 °C 54.1 °F /  12.3 °C 30.45in /  1031hPa Calm     61.9% 0.00in /  0mm 512 W/m2
08:39 68 °F /  20 °C 54.2 °F /  12.3 °C 30.45in /  1031hPa Calm     61.2% 0.00in /  0mm 533 W/m2
08:44 68.7 °F /  20.4 °C 53.9 °F /  12.2 °C 30.45in /  1031hPa South 0.1mph /  0.2km/h 2mph /  3.2km/h 59.3% 0.00in /  0mm 541 W/m2
08:49 69.3 °F /  20.7 °C 54.1 °F /  12.3 °C 30.45in /  1031hPa Calm   2mph /  3.2km/h 58.5% 0.00in /  0mm 554 W/m2
08:54 70 °F /  21.1 °C 54 °F /  12.2 °C 30.44in /  1030.7hPa Calm   2mph /  3.2km/h 56.8% 0.00in /  0mm 568 W/m2
08:59 70.6 °F /  21.4 °C 53.4 °F /  11.9 °C 30.45in /  1031hPa Calm   2mph /  3.2km/h 54.6% 0.00in /  0mm 580 W/m2
09:04 71 °F /  21.7 °C 53.5 °F /  11.9 °C 30.45in /  1031hPa Calm   2mph /  3.2km/h 53.9% 0.00in /  0mm 591 W/m2
09:09 71.3 °F /  21.8 °C 53 °F /  11.7 °C 30.45in /  1031hPa Calm     52.5% 0.00in /  0mm 608 W/m2
09:14 71.7 °F /  22.1 °C 53.3 °F /  11.8 °C 30.45in /  1031hPa Calm     52.4% 0.00in /  0mm 624 W/m2
09:19 72 °F /  22.2 °C 54.4 °F /  12.4 °C 30.45in /  1031hPa Calm     53.9% 0.00in /  0mm 638 W/m2
09:24 72.2 °F /  22.3 °C 53 °F /  11.7 °C 30.45in /  1031hPa Calm   1mph /  1.6km/h 50.8% 0.00in /  0mm 656 W/m2
09:29 72.3 °F /  22.4 °C 52.4 °F /  11.3 °C 30.45in /  1031hPa Calm   1mph /  1.6km/h 49.6% 0.00in /  0mm 664 W/m2
09:34 72.6 °F /  22.6 °C 52.9 °F /  11.6 °C 30.45in /  1031hPa Calm   1mph /  1.6km/h 50% 0.00in /  0mm 682 W/m2
09:39 73.1 °F /  22.8 °C 51.9 °F /  11.1 °C 30.45in /  1031hPa Calm     47.4% 0.00in /  0mm 694 W/m2
09:44 73.3 °F /  22.9 °C 51.4 °F /  10.8 °C 30.45in /  1031hPa Calm     46.2% 0.00in /  0mm 705 W/m2
09:49 73.6 °F /  23.1 °C 52.7 °F /  11.5 °C 30.45in /  1031hPa Calm     48% 0.00in /  0mm 715 W/m2
09:54 74.2 °F /  23.4 °C 51.6 °F /  10.9 °C 30.45in /  1031hPa Calm     45.2% 0.00in /  0mm 737 W/m2
09:59 74.5 °F /  23.6 °C 51 °F /  10.6 °C 30.45in /  1031hPa Calm   1mph /  1.6km/h 43.8% 0.00in /  0mm 751 W/m2
10:04 74.7 °F /  23.7 °C 50.7 °F /  10.4 °C 30.45in /  1031hPa Calm   1mph /  1.6km/h 42.9% 0.00in /  0mm 763 W/m2
10:09 74.7 °F /  23.7 °C 50.8 °F /  10.4 °C 30.45in /  1031hPa Calm     43% 0.00in /  0mm 770 W/m2
10:14 74.9 °F /  23.8 °C 50.9 °F /  10.5 °C 30.45in /  1031hPa Calm     42.8% 0.00in /  0mm 775 W/m2
10:19 75.4 °F /  24.1 °C 50.2 °F /  10.1 °C 30.45in /  1031hPa Calm   2mph /  3.2km/h 41.2% 0.00in /  0mm 789 W/m2
10:24 75.9 °F /  24.4 °C 49.5 °F /  9.7 °C 30.45in /  1031hPa South 0.1mph /  0.2km/h 2mph /  3.2km/h 39.5% 0.00in /  0mm 793 W/m2
10:29 76.2 °F /  24.6 °C 48.6 °F /  9.2 °C 30.45in /  1031hPa South 0.1mph /  0.2km/h 3mph /  4.8km/h 37.9% 0.00in /  0mm 809 W/m2
10:34 76.4 °F /  24.7 °C 49.1 °F /  9.5 °C 30.45in /  1031hPa South 0.1mph /  0.2km/h 3mph /  4.8km/h 38.2% 0.00in /  0mm 807 W/m2
10:39 76.6 °F /  24.8 °C 48 °F /  8.9 °C 30.45in /  1031hPa Calm   2mph /  3.2km/h 36.5% 0.00in /  0mm 816 W/m2
10:44 76.3 °F /  24.6 °C 47.5 °F /  8.6 °C 30.45in /  1031hPa Calm   2mph /  3.2km/h 36.1% 0.00in /  0mm 842 W/m2
10:49 76.2 °F /  24.6 °C 49.6 °F /  9.8 °C 30.45in /  1031hPa Calm   2mph /  3.2km/h 39.1% 0.00in /  0mm 849 W/m2
10:54 76.8 °F /  24.9 °C 49.3 °F /  9.6 °C 30.44in /  1030.7hPa Calm   2mph /  3.2km/h 38% 0.00in /  0mm 858 W/m2
10:59 77.2 °F /  25.1 °C 49.3 °F /  9.6 °C 30.44in /  1030.7hPa Calm   2mph /  3.2km/h 37.6% 0.00in /  0mm 865 W/m2
11:04 77.5 °F /  25.3 °C 49 °F /  9.4 °C 30.44in /  1030.7hPa South 0.2mph /  0.3km/h 2mph /  3.2km/h 36.8% 0.00in /  0mm 875 W/m2
11:09 77.6 °F /  25.3 °C 48 °F /  8.9 °C 30.44in /  1030.7hPa Calm   2mph /  3.2km/h 35.2% 0.00in /  0mm 879 W/m2
11:14 77.2 °F /  25.1 °C 46.6 °F /  8.1 °C 30.44in /  1030.7hPa Calm   2mph /  3.2km/h 33.9% 0.00in /  0mm 884 W/m2
11:19 77.1 °F /  25.1 °C 47.6 °F /  8.7 °C 30.44in /  1030.7hPa South 0.1mph /  0.2km/h 2mph /  3.2km/h 35.3% 0.00in /  0mm 882 W/m2
11:24 77.2 °F /  25.1 °C 49 °F /  9.4 °C 30.44in /  1030.7hPa Calm   2mph /  3.2km/h 37.1% 0.00in /  0mm 895 W/m2
11:29 77.4 °F /  25.2 °C 48 °F /  8.9 °C 30.44in /  1030.7hPa South 0.4mph /  0.6km/h 3mph /  4.8km/h 35.6% 0.00in /  0mm 898 W/m2
11:34 77.3 °F /  25.2 °C 48.7 °F /  9.3 °C 30.44in /  1030.7hPa SSE 0.1mph /  0.2km/h 3mph /  4.8km/h 36.6% 0.00in /  0mm 905 W/m2
11:39 77.4 °F /  25.2 °C 48.6 °F /  9.2 °C 30.44in /  1030.7hPa Calm   2mph /  3.2km/h 36.2% 0.00in /  0mm 916 W/m2
11:44 78 °F /  25.6 °C 49.7 °F /  9.8 °C 30.44in /  1030.7hPa Calm   2mph /  3.2km/h 37% 0.00in /  0mm 889 W/m2
11:49 78.5 °F /  25.8 °C 49.9 °F /  9.9 °C 30.44in /  1030.7hPa Calm   2mph /  3.2km/h 36.8% 0.00in /  0mm 914 W/m2
11:54 78.7 °F /  25.9 °C 49.3 °F /  9.6 °C 30.44in /  1030.7hPa Calm   2mph /  3.2km/h 35.7% 0.00in /  0mm 921 W/m2
11:59 78.9 °F /  26.1 °C 50.5 °F /  10.3 °C 30.44in /  1030.7hPa Calm   2mph /  3.2km/h 37% 0.00in /  0mm 925 W/m2
12:09 79.4 °F /  26.3 °C 49.9 °F /  9.9 °C 30.44in /  1030.7hPa SW 1.6mph /  2.6km/h 6mph /  9.7km/h 35.7% 0.00in /  0mm 905 W/m2
12:14 79.5 °F /  26.4 °C 49.2 °F /  9.6 °C 30.44in /  1030.7hPa Calm   6mph /  9.7km/h 34.6% 0.00in /  0mm 942 W/m2
12:19 79.8 °F /  26.6 °C 50.5 °F /  10.3 °C 30.44in /  1030.7hPa West 0.2mph /  0.3km/h 6mph /  9.7km/h 36% 0.00in /  0mm 993 W/m2
12:24 80.1 °F /  26.7 °C 50.8 °F /  10.4 °C 30.44in /  1030.7hPa West 0.4mph /  0.6km/h 6mph /  9.7km/h 36.1% 0.00in /  0mm 988 W/m2
12:29 80.1 °F /  26.7 °C 48.2 °F /  9 °C 30.44in /  1030.7hPa West 0.1mph /  0.2km/h 6mph /  9.7km/h 32.7% 0.00in /  0mm 810 W/m2
12:34 79.7 °F /  26.5 °C 48.2 °F /  9 °C 30.44in /  1030.7hPa Calm   6mph /  9.7km/h 33.1% 0.00in /  0mm 875 W/m2
12:39 79.4 °F /  26.3 °C 48.2 °F /  9 °C 30.44in /  1030.7hPa Calm   1mph /  1.6km/h 33.5% 0.00in /  0mm 777 W/m2
12:44 79.2 °F /  26.2 °C 49 °F /  9.4 °C 30.43in /  1030.4hPa Calm   1mph /  1.6km/h 34.8% 0.00in /  0mm 759 W/m2
12:49 78.8 °F /  26 °C 48.5 °F /  9.2 °C 30.43in /  1030.4hPa Calm   1mph /  1.6km/h 34.5% 0.00in /  0mm 947 W/m2
12:54 78.7 °F /  25.9 °C 48.9 °F /  9.4 °C 30.43in /  1030.4hPa West 0.5mph /  0.8km/h 4mph /  6.4km/h 35.2% 0.00in /  0mm 1030 W/m2
12:59 78.8 °F /  26 °C 49 °F /  9.4 °C 30.43in /  1030.4hPa West 0.2mph /  0.3km/h 4mph /  6.4km/h 35.3% 0.00in /  0mm 1030 W/m2
13:04 78.8 °F /  26 °C 49.6 °F /  9.8 °C 30.43in /  1030.4hPa Calm   4mph /  6.4km/h 36% 0.00in /  0mm 1011 W/m2
13:09 79.2 °F /  26.2 °C 50.2 °F /  10.1 °C 30.43in /  1030.4hPa West 0.1mph /  0.2km/h 2mph /  3.2km/h 36.4% 0.00in /  0mm 1004 W/m2
13:14 79.6 °F /  26.4 °C 50.4 °F /  10.2 °C 30.44in /  1030.7hPa WSW 0.4mph /  0.6km/h 6mph /  9.7km/h 36.2% 0.00in /  0mm 995 W/m2
13:19 79.7 °F /  26.5 °C 50.1 °F /  10.1 °C 30.43in /  1030.4hPa WSW 0.4mph /  0.6km/h 6mph /  9.7km/h 35.6% 0.00in /  0mm 1000 W/m2
13:24 79.9 °F /  26.6 °C 49.4 °F /  9.7 °C 30.43in /  1030.4hPa WSW 0.2mph /  0.3km/h 6mph /  9.7km/h 34.4% 0.00in /  0mm 977 W/m2
13:29 80 °F /  26.7 °C 49.7 °F /  9.8 °C 30.43in /  1030.4hPa WSW 0.2mph /  0.3km/h 6mph /  9.7km/h 34.7% 0.00in /  0mm 974 W/m2
13:34 80.1 °F /  26.7 °C 49.4 °F /  9.7 °C 30.43in /  1030.4hPa WSW 0.2mph /  0.3km/h 6mph /  9.7km/h 34.3% 0.00in /  0mm 953 W/m2
13:39 79.9 °F /  26.6 °C 48.9 °F /  9.4 °C 30.43in /  1030.4hPa WSW 0.1mph /  0.2km/h 2mph /  3.2km/h 33.8% 0.00in /  0mm 942 W/m2
13:44 80 °F /  26.7 °C 49.9 °F /  9.9 °C 30.43in /  1030.4hPa WSW 0.2mph /  0.3km/h 3mph /  4.8km/h 35% 0.00in /  0mm 932 W/m2
13:49 80.2 °F /  26.8 °C 49.6 °F /  9.8 °C 30.43in /  1030.4hPa WSW 0.3mph /  0.5km/h 3mph /  4.8km/h 34.3% 0.00in /  0mm 925 W/m2
13:54 80.3 °F /  26.8 °C 49.5 °F /  9.7 °C 30.43in /  1030.4hPa SW 0.4mph /  0.6km/h 3mph /  4.8km/h 34% 0.00in /  0mm 921 W/m2
13:59 80.3 °F /  26.8 °C 50.1 °F /  10.1 °C 30.43in /  1030.4hPa Calm   3mph /  4.8km/h 34.9% 0.00in /  0mm 916 W/m2
14:04 80.5 °F /  26.9 °C 50.1 °F /  10.1 °C 30.43in /  1030.4hPa SW 0.2mph /  0.3km/h 3mph /  4.8km/h 34.7% 0.00in /  0mm 914 W/m2
14:09 80.7 °F /  27.1 °C 51.7 °F /  10.9 °C 30.43in /  1030.4hPa SW 1.5mph /  2.4km/h 5mph /  8km/h 36.6% 0.00in /  0mm 902 W/m2
14:14 81.1 °F /  27.3 °C 51.6 °F /  10.9 °C 30.43in /  1030.4hPa SW 0.4mph /  0.6km/h 5mph /  8km/h 35.8% 0.00in /  0mm 898 W/m2
14:19 81.4 °F /  27.4 °C 50.6 °F /  10.3 °C 30.42in /  1030hPa Calm   5mph /  8km/h 34.4% 0.00in /  0mm 893 W/m2
14:24 81.4 °F /  27.4 °C 51.6 °F /  10.9 °C 30.42in /  1030hPa SW 1mph /  1.6km/h 5mph /  8km/h 35.6% 0.00in /  0mm 886 W/m2
14:29 81.6 °F /  27.6 °C 52.4 °F /  11.3 °C 30.42in /  1030hPa SW 1mph /  1.6km/h 5mph /  8km/h 36.5% 0.00in /  0mm 879 W/m2
14:34 81.9 °F /  27.7 °C 51.7 °F /  10.9 °C 30.42in /  1030hPa SW 0.7mph /  1.1km/h 5mph /  8km/h 35.2% 0.00in /  0mm 870 W/m2
14:39 81.9 °F /  27.7 °C 52.2 °F /  11.2 °C 30.42in /  1030hPa SW 0.4mph /  0.6km/h 4mph /  6.4km/h 35.7% 0.00in /  0mm 863 W/m2
14:44 81.9 °F /  27.7 °C 51.7 °F /  10.9 °C 30.42in /  1030hPa SW 0.8mph /  1.3km/h 4mph /  6.4km/h 35.2% 0.00in /  0mm 854 W/m2
14:49 81.6 °F /  27.6 °C 50.5 °F /  10.3 °C 30.42in /  1030hPa SW 0.9mph /  1.4km/h 6mph /  9.7km/h 33.9% 0.00in /  0mm 847 W/m2
14:54 81.3 °F /  27.4 °C 49.7 °F /  9.8 °C 30.42in /  1030hPa SW 0.2mph /  0.3km/h 6mph /  9.7km/h 33.3% 0.00in /  0mm 837 W/m2
14:59 81 °F /  27.2 °C 50.9 °F /  10.5 °C 30.42in /  1030hPa SW 0.5mph /  0.8km/h 6mph /  9.7km/h 35.1% 0.00in /  0mm 826 W/m2
15:04 81 °F /  27.2 °C 50.5 °F /  10.3 °C 30.42in /  1030hPa SW 0.7mph /  1.1km/h 6mph /  9.7km/h 34.7% 0.00in /  0mm 819 W/m2
15:09 80.8 °F /  27.1 °C 50.2 °F /  10.1 °C 30.41in /  1029.7hPa SW 0.4mph /  0.6km/h 3mph /  4.8km/h 34.5% 0.00in /  0mm 812 W/m2
15:14 80.9 °F /  27.2 °C 50.9 °F /  10.5 °C 30.41in /  1029.7hPa SW 1.5mph /  2.4km/h 4mph /  6.4km/h 35.2% 0.00in /  0mm 802 W/m2
15:19 81.1 °F /  27.3 °C 50.1 °F /  10.1 °C 30.41in /  1029.7hPa SW 1mph /  1.6km/h 4mph /  6.4km/h 34% 0.00in /  0mm 788 W/m2
15:24 81 °F /  27.2 °C 49 °F /  9.4 °C 30.41in /  1029.7hPa SSW 0.6mph /  1km/h 4mph /  6.4km/h 32.8% 0.00in /  0mm 780 W/m2
15:29 80.9 °F /  27.2 °C 49.6 °F /  9.8 °C 30.41in /  1029.7hPa SW 1.4mph /  2.3km/h 4mph /  6.4km/h 33.7% 0.00in /  0mm 768 W/m2
15:34 81 °F /  27.2 °C 50.1 °F /  10.1 °C 30.41in /  1029.7hPa SW 1.4mph /  2.3km/h 5mph /  8km/h 34.2% 0.00in /  0mm 758 W/m2
15:39 81.1 °F /  27.3 °C 49.8 °F /  9.9 °C 30.41in /  1029.7hPa SSW 0.7mph /  1.1km/h 5mph /  8km/h 33.6% 0.00in /  0mm 745 W/m2
15:44 81.2 °F /  27.3 °C 50.4 °F /  10.2 °C 30.41in /  1029.7hPa SSW 0.5mph /  0.8km/h 5mph /  8km/h 34.3% 0.00in /  0mm 729 W/m2
15:49 81.1 °F /  27.3 °C 48.6 °F /  9.2 °C 30.41in /  1029.7hPa SSW 0.3mph /  0.5km/h 5mph /  8km/h 32.2% 0.00in /  0mm 721 W/m2
15:54 80.7 °F /  27.1 °C 48.5 °F /  9.2 °C 30.40in /  1029.3hPa SSW 0.6mph /  1km/h 5mph /  8km/h 32.5% 0.00in /  0mm 708 W/m2
15:59 80.5 °F /  26.9 °C 49.9 °F /  9.9 °C 30.41in /  1029.7hPa SSW 0.7mph /  1.1km/h 5mph /  8km/h 34.4% 0.00in /  0mm 693 W/m2
16:00 80.5 °F /  26.9 °C 50.4 °F /  10.2 °C 30.40in /  1029.3hPa SSW 1mph /  1.6km/h 5mph /  8km/h 35% 0.00in /  0mm 679 W/m2
16:09 80.5 °F /  26.9 °C 50.1 °F /  10.1 °C 30.40in /  1029.3hPa SSW 1.1mph /  1.8km/h 4mph /  6.4km/h 34.7% 0.00in /  0mm 663 W/m2
16:14 80.4 °F /  26.9 °C 49.7 °F /  9.8 °C 30.40in /  1029.3hPa SW 0.8mph /  1.3km/h 5mph /  8km/h 34.3% 0.00in /  0mm 81 W/m2
16:19 80.2 °F /  26.8 °C 49.6 °F /  9.8 °C 30.40in /  1029.3hPa SW 1.4mph /  2.3km/h 9mph /  14.5km/h 34.3% 0.00in /  0mm 77 W/m2
16:24 79.8 °F /  26.6 °C 48.3 °F /  9.1 °C 30.40in /  1029.3hPa SW 0.8mph /  1.3km/h 9mph /  14.5km/h 33.2% 0.00in /  0mm 74 W/m2
16:29 79.3 °F /  26.3 °C 48.7 °F /  9.3 °C 30.41in /  1029.7hPa SW 1.5mph /  2.4km/h 9mph /  14.5km/h 34.1% 0.00in /  0mm 72 W/m2
16:34 79.1 °F /  26.2 °C 49.1 °F /  9.5 °C 30.41in /  1029.7hPa SW 0.6mph /  1km/h 9mph /  14.5km/h 35% 0.00in /  0mm 70 W/m2
16:39 78.9 °F /  26.1 °C 49.7 °F /  9.8 °C 30.41in /  1029.7hPa SW 0.7mph /  1.1km/h 3mph /  4.8km/h 36% 0.00in /  0mm 69 W/m2
16:44 78.8 °F /  26 °C 49.1 °F /  9.5 °C 30.41in /  1029.7hPa SW 0.4mph /  0.6km/h 3mph /  4.8km/h 35.2% 0.00in /  0mm 67 W/m2
16:49 78.7 °F /  25.9 °C 49.8 °F /  9.9 °C 30.41in /  1029.7hPa SW 1.2mph /  1.9km/h 7mph /  11.3km/h 36.3% 0.00in /  0mm 65 W/m2
16:54 78.6 °F /  25.9 °C 49.6 °F /  9.8 °C 30.41in /  1029.7hPa SW 0.9mph /  1.4km/h 7mph /  11.3km/h 36.2% 0.00in /  0mm 63 W/m2
16:59 78.4 °F /  25.8 °C 49.6 °F /  9.8 °C 30.41in /  1029.7hPa SW 0.2mph /  0.3km/h 7mph /  11.3km/h 36.5% 0.00in /  0mm 62 W/m2
17:04 78.3 °F /  25.7 °C 49.8 °F /  9.9 °C 30.41in /  1029.7hPa SW 0.4mph /  0.6km/h 7mph /  11.3km/h 36.9% 0.00in /  0mm 60 W/m2
17:09 78.2 °F /  25.7 °C 50.1 °F /  10.1 °C 30.41in /  1029.7hPa SW 0.4mph /  0.6km/h 5mph /  8km/h 37.4% 0.00in /  0mm 60 W/m2
17:14 78 °F /  25.6 °C 49.4 °F /  9.7 °C 30.41in /  1029.7hPa SSW 1.9mph /  3.1km/h 5mph /  8km/h 36.7% 0.00in /  0mm 58 W/m2
17:19 77.8 °F /  25.4 °C 49.4 °F /  9.7 °C 30.41in /  1029.7hPa SSW 1mph /  1.6km/h 5mph /  8km/h 37% 0.00in /  0mm 58 W/m2
17:24 77.6 °F /  25.3 °C 49.6 °F /  9.8 °C 30.41in /  1029.7hPa SSW 0.9mph /  1.4km/h 5mph /  8km/h 37.5% 0.00in /  0mm 56 W/m2
17:29 77.4 °F /  25.2 °C 49.9 °F /  9.9 °C 30.41in /  1029.7hPa SSW 1.4mph /  2.3km/h 5mph /  8km/h 38.1% 0.00in /  0mm 54 W/m2
17:34 77.3 °F /  25.2 °C 50.3 °F /  10.2 °C 30.41in /  1029.7hPa SSW 0.8mph /  1.3km/h 5mph /  8km/h 38.8% 0.00in /  0mm 53 W/m2
17:39 77.1 °F /  25.1 °C 50.6 °F /  10.3 °C 30.41in /  1029.7hPa SSW 0.5mph /  0.8km/h 4mph /  6.4km/h 39.5% 0.00in /  0mm 53 W/m2
17:44 77 °F /  25 °C 50.7 °F /  10.4 °C 30.41in /  1029.7hPa SSW 0.4mph /  0.6km/h 4mph /  6.4km/h 39.7% 0.00in /  0mm 51 W/m2
17:49 76.9 °F /  24.9 °C 50.5 °F /  10.3 °C 30.41in /  1029.7hPa SSW 0.3mph /  0.5km/h 4mph /  6.4km/h 39.6% 0.00in /  0mm 51 W/m2
17:54 76.6 °F /  24.8 °C 50.5 °F /  10.3 °C 30.41in /  1029.7hPa SSW 0.1mph /  0.2km/h 4mph /  6.4km/h 39.9% 0.00in /  0mm 49 W/m2
17:59 76.3 °F /  24.6 °C 49.9 °F /  9.9 °C 30.41in /  1029.7hPa South 1.8mph /  2.9km/h 5mph /  8km/h 39.5% 0.00in /  0mm 47 W/m2
18:04 76 °F /  24.4 °C 50 °F /  10 °C 30.41in /  1029.7hPa South 0.9mph /  1.4km/h 7mph /  11.3km/h 40% 0.00in /  0mm 47 W/m2
18:09 75.8 °F /  24.3 °C 50 °F /  10 °C 30.41in /  1029.7hPa South 1.4mph /  2.3km/h 8mph /  12.9km/h 40.4% 0.00in /  0mm 46 W/m2
18:14 75.5 °F /  24.2 °C 50.2 °F /  10.1 °C 30.41in /  1029.7hPa SSW 0.8mph /  1.3km/h 8mph /  12.9km/h 41% 0.00in /  0mm 44 W/m2
18:19 75.3 °F /  24.1 °C 49.9 °F /  9.9 °C 30.41in /  1029.7hPa SSW 0.9mph /  1.4km/h 8mph /  12.9km/h 40.8% 0.00in /  0mm 42 W/m2
18:24 75.1 °F /  23.9 °C 49.4 °F /  9.7 °C 30.41in /  1029.7hPa South 1mph /  1.6km/h 8mph /  12.9km/h 40.3% 0.00in /  0mm 42 W/m2
18:29 74.9 °F /  23.8 °C 49.5 °F /  9.7 °C 30.41in /  1029.7hPa South 1.3mph /  2.1km/h 8mph /  12.9km/h 40.8% 0.00in /  0mm 40 W/m2
18:34 74.6 °F /  23.7 °C 49.5 °F /  9.7 °C 30.41in /  1029.7hPa SSW 0.9mph /  1.4km/h 8mph /  12.9km/h 41.2% 0.00in /  0mm 39 W/m2
18:39 74.4 °F /  23.6 °C 49.2 °F /  9.6 °C 30.41in /  1029.7hPa SW 0.5mph /  0.8km/h 5mph /  8km/h 41% 0.00in /  0mm 37 W/m2
18:44 74.1 °F /  23.4 °C 48.8 °F /  9.3 °C 30.41in /  1029.7hPa SSW 0.8mph /  1.3km/h 5mph /  8km/h 40.9% 0.00in /  0mm 35 W/m2
18:49 73.8 °F /  23.2 °C 48.1 °F /  8.9 °C 30.41in /  1029.7hPa South 1.1mph /  1.8km/h 6mph /  9.7km/h 40.2% 0.00in /  0mm 33 W/m2
18:54 73.5 °F /  23.1 °C 48.4 °F /  9.1 °C 30.41in /  1029.7hPa South 0.3mph /  0.5km/h 6mph /  9.7km/h 41% 0.00in /  0mm 33 W/m2
18:59 73.2 °F /  22.9 °C 48.6 °F /  9.2 °C 30.41in /  1029.7hPa South 0.1mph /  0.2km/h 6mph /  9.7km/h 41.7% 0.00in /  0mm 32 W/m2
19:04 73 °F /  22.8 °C 48.9 °F /  9.4 °C 30.41in /  1029.7hPa South 0.5mph /  0.8km/h 6mph /  9.7km/h 42.5% 0.00in /  0mm 30 W/m2
19:09 72.8 °F /  22.7 °C 48.7 °F /  9.3 °C 30.41in /  1029.7hPa SSW 0.5mph /  0.8km/h 4mph /  6.4km/h 42.5% 0.00in /  0mm 28 W/m2
19:14 72.5 °F /  22.5 °C 49.3 °F /  9.6 °C 30.41in /  1029.7hPa SSW 0.2mph /  0.3km/h 4mph /  6.4km/h 43.8% 0.00in /  0mm 26 W/m2
19:19 72.2 °F /  22.3 °C 49 °F /  9.4 °C 30.41in /  1029.7hPa SSW 0.2mph /  0.3km/h 4mph /  6.4km/h 43.8% 0.00in /  0mm 25 W/m2
19:24 71.9 °F /  22.2 °C 49.3 °F /  9.6 °C 30.42in /  1030hPa Calm   4mph /  6.4km/h 44.8% 0.00in /  0mm 23 W/m2
19:29 71.6 °F /  22 °C 49 °F /  9.4 °C 30.42in /  1030hPa SW 0.6mph /  1km/h 5mph /  8km/h 44.8% 0.00in /  0mm 21 W/m2
19:34 71.2 °F /  21.8 °C 48.7 °F /  9.3 °C 30.42in /  1030hPa SW 0.4mph /  0.6km/h 5mph /  8km/h 44.9% 0.00in /  0mm 19 W/m2
19:39 70.8 °F /  21.6 °C 48.6 °F /  9.2 °C 30.42in /  1030hPa SSW 0.5mph /  0.8km/h 4mph /  6.4km/h 45.4% 0.00in /  0mm 16 W/m2
19:44 70.4 °F /  21.3 °C 48.3 °F /  9.1 °C 30.42in /  1030hPa SSW 0.4mph /  0.6km/h 4mph /  6.4km/h 45.4% 0.00in /  0mm 12 W/m2
19:49 70.1 °F /  21.2 °C 48.7 °F /  9.3 °C 30.42in /  1030hPa SSW 0.1mph /  0.2km/h 4mph /  6.4km/h 46.6% 0.00in /  0mm 11 W/m2
19:54 69.8 °F /  21 °C 48.9 °F /  9.4 °C 30.43in /  1030.4hPa SSW 0.1mph /  0.2km/h 4mph /  6.4km/h 47.4% 0.00in /  0mm 9 W/m2
19:59 69.5 °F /  20.8 °C 48.8 °F /  9.3 °C 30.43in /  1030.4hPa Calm   4mph /  6.4km/h 47.7% 0.00in /  0mm 5 W/m2
20:00 69.3 °F /  20.7 °C 48.8 °F /  9.3 °C 30.42in /  1030hPa Calm   4mph /  6.4km/h 48% 0.00in /  0mm 0 W/m2
20:09 68.9 °F /  20.5 °C 48.6 °F /  9.2 °C 30.43in /  1030.4hPa Calm   1mph /  1.6km/h 48.3% 0.00in /  0mm 0 W/m2
20:14 68.6 °F /  20.3 °C 48.6 °F /  9.2 °C 30.43in /  1030.4hPa SSW 0.1mph /  0.2km/h 2mph /  3.2km/h 48.9% 0.00in /  0mm 0 W/m2
20:19 68.3 °F /  20.2 °C 48 °F /  8.9 °C 30.43in /  1030.4hPa Calm   2mph /  3.2km/h 48.3% 0.00in /  0mm 0 W/m2
20:24 67.9 °F /  19.9 °C 48.6 °F /  9.2 °C 30.43in /  1030.4hPa SSW 0.1mph /  0.2km/h 4mph /  6.4km/h 49.9% 0.00in /  0mm 0 W/m2
20:29 67.5 °F /  19.7 °C 49 °F /  9.4 °C 30.44in /  1030.7hPa Calm   4mph /  6.4km/h 51.4% 0.00in /  0mm 0 W/m2
20:34 67.2 °F /  19.6 °C 49.1 °F /  9.5 °C 30.44in /  1030.7hPa SSW 0.1mph /  0.2km/h 4mph /  6.4km/h 52.2% 0.00in /  0mm 0 W/m2
20:39 66.9 °F /  19.4 °C 49.2 °F /  9.6 °C 30.44in /  1030.7hPa Calm   2mph /  3.2km/h 53% 0.00in /  0mm 0 W/m2
20:44 66.6 °F /  19.2 °C 48.9 °F /  9.4 °C 30.44in /  1030.7hPa Calm   2mph /  3.2km/h 53% 0.00in /  0mm 0 W/m2
20:49 66.2 °F /  19 °C 49 °F /  9.4 °C 30.44in /  1030.7hPa Calm   2mph /  3.2km/h 53.8% 0.00in /  0mm 0 W/m2
20:54 65.9 °F /  18.8 °C 48.7 °F /  9.3 °C 30.44in /  1030.7hPa Calm   2mph /  3.2km/h 53.8% 0.00in /  0mm 0 W/m2
20:59 65.6 °F /  18.7 °C 48.8 °F /  9.3 °C 30.45in /  1031hPa Calm   2mph /  3.2km/h 54.5% 0.00in /  0mm 0 W/m2
21:04 65.4 °F /  18.6 °C 49.1 °F /  9.5 °C 30.45in /  1031hPa SSW 0.3mph /  0.5km/h 3mph /  4.8km/h 55.7% 0.00in /  0mm 0 W/m2
21:09 65.1 °F /  18.4 °C 49.5 °F /  9.7 °C 30.45in /  1031hPa Calm   3mph /  4.8km/h 57% 0.00in /  0mm 0 W/m2
21:14 64.8 °F /  18.2 °C 49.7 °F /  9.8 °C 30.46in /  1031.4hPa Calm   3mph /  4.8km/h 58.1% 0.00in /  0mm 0 W/m2
21:19 64.5 °F /  18.1 °C 50.2 °F /  10.1 °C 30.45in /  1031hPa Calm   3mph /  4.8km/h 59.7% 0.00in /  0mm 0 W/m2
21:24 64.2 °F /  17.9 °C 50.7 °F /  10.4 °C 30.46in /  1031.4hPa SSW 0.4mph /  0.6km/h 3mph /  4.8km/h 61.4% 0.00in /  0mm 0 W/m2
21:29 63.9 °F /  17.7 °C 51.2 °F /  10.7 °C 30.46in /  1031.4hPa Calm   3mph /  4.8km/h 63.2% 0.00in /  0mm 0 W/m2
21:34 63.7 °F /  17.6 °C 51.4 °F /  10.8 °C 30.46in /  1031.4hPa SSW 0.1mph /  0.2km/h 3mph /  4.8km/h 64.4% 0.00in /  0mm 0 W/m2
21:39 63.4 °F /  17.4 °C 51.5 °F /  10.8 °C 30.46in /  1031.4hPa SSW 0.1mph /  0.2km/h 2mph /  3.2km/h 65.1% 0.00in /  0mm 0 W/m2
21:44 63.2 °F /  17.3 °C 51.7 °F /  10.9 °C 30.46in /  1031.4hPa Calm   2mph /  3.2km/h 66.1% 0.00in /  0mm 0 W/m2
21:49 63 °F /  17.2 °C 51.8 °F /  11 °C 30.46in /  1031.4hPa Calm   2mph /  3.2km/h 67% 0.00in /  0mm 0 W/m2
21:54 62.7 °F /  17.1 °C 52 °F /  11.1 °C 30.46in /  1031.4hPa SSW 0.1mph /  0.2km/h 2mph /  3.2km/h 67.9% 0.00in /  0mm 0 W/m2
21:59 62.5 °F /  16.9 °C 52 °F /  11.1 °C 30.46in /  1031.4hPa SSW 0.2mph /  0.3km/h 3mph /  4.8km/h 68.5% 0.00in /  0mm 0 W/m2
22:04 62.2 °F /  16.8 °C 51.9 °F /  11.1 °C 30.46in /  1031.4hPa SSW 0.2mph /  0.3km/h 3mph /  4.8km/h 69% 0.00in /  0mm 0 W/m2
22:09 62 °F /  16.7 °C 52.1 °F /  11.2 °C 30.46in /  1031.4hPa Calm   2mph /  3.2km/h 70% 0.00in /  0mm 0 W/m2
22:14 61.8 °F /  16.6 °C 52.3 °F /  11.3 °C 30.46in /  1031.4hPa Calm   2mph /  3.2km/h 70.9% 0.00in /  0mm 0 W/m2
22:19 61.6 °F /  16.4 °C 52.2 °F /  11.2 °C 30.47in /  1031.7hPa Calm   2mph /  3.2km/h 71.2% 0.00in /  0mm 0 W/m2
22:24 61.4 °F /  16.3 °C 52.3 °F /  11.3 °C 30.47in /  1031.7hPa Calm   2mph /  3.2km/h 72% 0.00in /  0mm 0 W/m2
22:29 61.2 °F /  16.2 °C 52.4 °F /  11.3 °C 30.47in /  1031.7hPa Calm   4mph /  6.4km/h 72.8% 0.00in /  0mm 0 W/m2
22:34 61 °F /  16.1 °C 52.3 °F /  11.3 °C 30.47in /  1031.7hPa SSW 0.2mph /  0.3km/h 4mph /  6.4km/h 73% 0.00in /  0mm 0 W/m2
22:39 60.8 °F /  16 °C 52.5 °F /  11.4 °C 30.47in /  1031.7hPa Calm   3mph /  4.8km/h 74% 0.00in /  0mm 0 W/m2
22:44 60.6 °F /  15.9 °C 52.3 °F /  11.3 °C 30.47in /  1031.7hPa Calm   3mph /  4.8km/h 74% 0.00in /  0mm 0 W/m2
22:49 60.4 °F /  15.8 °C 52.3 °F /  11.3 °C 30.47in /  1031.7hPa Calm   3mph /  4.8km/h 74.6% 0.00in /  0mm 0 W/m2
22:54 60.2 °F /  15.7 °C 52.4 °F /  11.3 °C 30.47in /  1031.7hPa Calm   3mph /  4.8km/h 75.2% 0.00in /  0mm 0 W/m2
22:59 60 °F /  15.6 °C 52.4 °F /  11.3 °C 30.47in /  1031.7hPa Calm   3mph /  4.8km/h 75.8% 0.00in /  0mm 0 W/m2
23:04 59.8 °F /  15.4 °C 52.4 °F /  11.3 °C 30.48in /  1032.1hPa Calm   3mph /  4.8km/h 76.5% 0.00in /  0mm 0 W/m2
23:09 59.6 °F /  15.3 °C 52.3 °F /  11.3 °C 30.48in /  1032.1hPa Calm     77% 0.00in /  0mm 0 W/m2
23:14 59.3 °F /  15.2 °C 52.3 °F /  11.3 °C 30.48in /  1032.1hPa Calm     77.4% 0.00in /  0mm 0 W/m2
23:19 59.2 °F /  15.1 °C 52.3 °F /  11.3 °C 30.48in /  1032.1hPa Calm     78% 0.00in /  0mm 0 W/m2
23:24 59 °F /  15 °C 52.2 °F /  11.2 °C 30.48in /  1032.1hPa Calm     78.2% 0.00in /  0mm 0 W/m2
23:29 58.8 °F /  14.9 °C 52 °F /  11.1 °C 30.48in /  1032.1hPa Calm     78% 0.00in /  0mm 0 W/m2
23:34 58.7 °F /  14.8 °C 52 °F /  11.1 °C 30.48in /  1032.1hPa Calm     78.5% 0.00in /  0mm 0 W/m2
23:39 58.5 °F /  14.7 °C 51.8 °F /  11 °C 30.48in /  1032.1hPa Calm     78.1% 0.00in /  0mm 0 W/m2
23:44 58.3 °F /  14.6 °C 51.5 °F /  10.8 °C 30.48in /  1032.1hPa Calm     77.9% 0.00in /  0mm 0 W/m2
23:49 58.2 °F /  14.6 °C 51 °F /  10.6 °C 30.48in /  1032.1hPa Calm     77% 0.00in /  0mm 0 W/m2
23:54 58.1 °F /  14.5 °C 50.9 °F /  10.5 °C 30.48in /  1032.1hPa Calm     77% 0.00in /  0mm 0 W/m2
23:59 58 °F /  14.4 °C 50.9 °F /  10.5 °C 30.47in /  1031.7hPa Calm     77% 0.00in /  0mm 0 W/m2
Hartford County Weather
Compliments of Weather Underground - 2 mb